Time;durP1;ratioP1;P1;durP2;ratioP2;P2;SDS_P1;SDS_P2;PMS_P1;PMS_P2;Temp;Humidity;BMP_temperature;BMP_pressure;BME280_temperature;BME280_humidity;BME280_pressure;Samples;Min_cycle;Max_cycle;Signal;HPM_P1;HPM_P2
2021/01/17 00:01:42;;;;;;;8.80;4.75;;;3.10;69.90;;;;;;2353504;53;20945;-71
2021/01/17 00:04:09;;;;;;;8.27;3.90;;;3.10;69.80;;;;;;2595331;52;20923;-71
2021/01/17 00:06:35;;;;;;;9.73;3.97;;;3.10;70.50;;;;;;2621109;52;21052;-71
2021/01/17 00:09:02;;;;;;;9.15;4.65;;;3.20;69.90;;;;;;2620637;52;21032;-70
2021/01/17 00:11:29;;;;;;;6.80;3.55;;;3.20;70.00;;;;;;2368547;53;21037;-71
2021/01/17 00:13:55;;;;;;;7.82;3.95;;;3.20;69.90;;;;;;2619977;52;21390;-71
2021/01/17 00:16:21;;;;;;;7.03;3.80;;;3.20;69.90;;;;;;2620626;52;20937;-72
2021/01/17 00:18:49;;;;;;;8.20;4.55;;;3.20;69.90;;;;;;2613447;52;21017;-72
2021/01/17 00:21:19;;;;;;;9.35;5.00;;;3.20;69.90;;;;;;2348748;53;21072;-71
2021/01/17 00:23:46;;;;;;;8.00;4.37;;;3.20;69.90;;;;;;2598908;52;21049;-71
2021/01/17 00:26:12;;;;;;;8.88;4.10;;;3.30;69.90;;;;;;2350614;53;21000;-72
2021/01/17 00:28:38;;;;;;;8.73;4.32;;;3.30;69.90;;;;;;2607877;52;21406;-71
2021/01/17 00:31:04;;;;;;;7.80;3.87;;;3.30;69.90;;;;;;2352391;53;21395;-72
2021/01/17 00:33:31;;;;;;;8.18;3.60;;;3.30;69.90;;;;;;2358997;53;20925;-71
2021/01/17 00:35:57;;;;;;;8.15;4.20;;;3.30;69.90;;;;;;2357338;53;20926;-70
2021/01/17 00:38:23;;;;;;;9.60;4.47;;;3.30;69.80;;;;;;2621906;52;20957;-71
2021/01/17 00:40:49;;;;;;;9.15;4.15;;;3.30;69.80;;;;;;2362048;53;21000;-71
2021/01/17 00:43:19;;;;;;;7.57;4.10;;;3.30;69.80;;;;;;2604845;52;20958;-70
2021/01/17 00:45:46;;;;;;;8.93;4.53;;;3.30;69.80;;;;;;2622305;52;20945;-70
2021/01/17 00:48:12;;;;;;;8.43;4.37;;;3.30;69.80;;;;;;2602217;52;21012;-70
2021/01/17 00:50:38;;;;;;;7.95;3.67;;;3.30;69.80;;;;;;2609600;52;21005;-70
2021/01/17 00:53:05;;;;;;;10.07;4.72;;;3.30;69.80;;;;;;2604860;52;20949;-71
2021/01/17 00:55:32;;;;;;;7.30;3.78;;;3.40;70.00;;;;;;2607387;52;21026;-70
2021/01/17 00:58:01;;;;;;;8.50;4.30;;;3.40;70.00;;;;;;2590381;52;20968;-69
2021/01/17 01:00:28;;;;;;;8.05;4.43;;;3.40;70.00;;;;;;2599075;52;21021;-72
2021/01/17 01:02:55;;;;;;;9.85;4.50;;;3.40;69.90;;;;;;2355438;53;20972;-71
2021/01/17 01:05:24;;;;;;;9.55;4.35;;;3.40;69.90;;;;;;2593370;52;20941;-71
2021/01/17 01:07:51;;;;;;;10.18;4.72;;;3.40;70.70;;;;;;2594569;52;20996;-72
2021/01/17 01:10:17;;;;;;;9.73;4.55;;;3.40;70.00;;;;;;2349433;53;21029;-71
2021/01/17 01:12:44;;;;;;;10.27;5.12;;;3.40;70.00;;;;;;2368019;54;21025;-70
2021/01/17 01:15:14;;;;;;;10.15;5.22;;;3.40;69.90;;;;;;2618756;52;21005;-70
2021/01/17 01:17:40;;;;;;;11.77;5.45;;;3.40;69.80;;;;;;2596195;52;21111;-71
2021/01/17 01:20:07;;;;;;;10.32;5.68;;;3.40;69.90;;;;;;2354593;53;20928;-70
2021/01/17 01:22:33;;;;;;;10.38;4.95;;;3.40;69.90;;;;;;2606820;52;20917;-69
2021/01/17 01:24:59;;;;;;;9.93;4.75;;;3.40;69.80;;;;;;2368791;54;20966;-70
2021/01/17 01:27:27;;;;;;;9.50;5.00;;;3.40;69.90;;;;;;2368481;53;20902;-71
2021/01/17 01:29:53;;;;;;;10.73;4.80;;;3.30;69.80;;;;;;2603627;52;21514;-71
2021/01/17 01:32:20;;;;;;;10.20;5.07;;;3.50;70.00;;;;;;2602196;52;20977;-70
2021/01/17 01:34:46;;;;;;;8.73;4.55;;;3.50;69.90;;;;;;2609203;52;21093;-70
2021/01/17 01:37:13;;;;;;;9.80;4.93;;;3.50;70.00;;;;;;2356926;53;20949;-71
2021/01/17 01:39:39;;;;;;;8.68;4.35;;;3.50;70.00;;;;;;2612903;52;20921;-71
2021/01/17 01:42:06;;;;;;;8.00;4.45;;;3.50;70.00;;;;;;2620753;52;20984;-71
2021/01/17 01:44:33;;;;;;;9.65;4.62;;;3.50;70.00;;;;;;2369107;54;20934;-70
2021/01/17 01:46:59;;;;;;;7.95;4.15;;;3.50;70.00;;;;;;2620468;52;21005;-72
2021/01/17 01:49:26;;;;;;;8.55;4.03;;;3.50;70.00;;;;;;2591946;52;20944;-72
2021/01/17 01:51:56;;;;;;;8.25;3.90;;;3.50;70.00;;;;;;2595888;52;20937;-71
2021/01/17 01:54:22;;;;;;;8.85;4.32;;;3.50;70.10;;;;;;2365413;54;21544;-72
2021/01/17 01:56:51;;;;;;;7.30;3.97;;;3.50;70.00;;;;;;2591072;52;21040;-70
2021/01/17 01:59:18;;;;;;;8.35;4.28;;;3.60;70.10;;;;;;2594367;52;20918;-71
2021/01/17 02:01:44;;;;;;;9.85;4.87;;;3.60;70.00;;;;;;2587674;52;20929;-72
2021/01/17 02:04:11;;;;;;;9.05;4.65;;;3.60;70.00;;;;;;2352163;53;20918;-71
2021/01/17 02:06:37;;;;;;;9.25;5.20;;;3.60;70.00;;;;;;2583624;52;20940;-71
2021/01/17 02:09:26;;;;;;;10.50;5.40;;;3.60;69.80;;;;;;2360351;53;21000;-72
2021/01/17 02:12:07;;;;;;;9.90;5.22;;;3.60;69.70;;;;;;2585754;52;21780;-71
2021/01/17 02:15:27;;;;;;;9.07;4.75;;;3.60;69.80;;;;;;2601294;52;20924;-72
2021/01/17 02:17:53;;;;;;;8.02;4.12;;;3.60;69.60;;;;;;2354840;53;21056;-70
2021/01/17 02:20:21;;;;;;;8.40;4.55;;;3.60;69.80;;;;;;2351627;53;20922;-72
2021/01/17 02:26:19;;;;;;;9.80;5.00;;;3.60;69.80;;;;;;2591875;52;21041;-71
2021/01/17 02:28:47;;;;;;;9.52;4.62;;;3.60;69.20;;;;;;2616040;52;20992;-70
2021/01/17 02:31:14;;;;;;;10.25;5.00;;;3.70;69.80;;;;;;2590864;52;20985;-72
2021/01/17 02:33:41;;;;;;;9.02;4.55;;;3.60;69.80;;;;;;2368211;54;20930;-71
2021/01/17 02:38:42;;;;;;;10.95;5.57;;;3.60;69.80;;;;;;2595857;52;21036;-70
2021/01/17 02:44:40;;;;;;;10.13;4.93;;;3.60;69.50;;;;;;2620544;52;21071;-71
2021/01/17 02:47:06;;;;;;;12.98;5.78;;;3.70;69.30;;;;;;2620580;52;22505;-72
2021/01/17 02:49:32;;;;;;;12.75;6.50;;;3.60;69.60;;;;;;2591776;52;21358;-71
2021/01/17 02:52:05;;;;;;;10.95;5.30;;;3.60;69.70;;;;;;2368741;54;20930;-71
2021/01/17 02:54:36;;;;;;;11.68;5.68;;;3.60;69.80;;;;;;2588430;52;20929;-70
2021/01/17 02:57:11;;;;;;;10.90;5.50;;;3.60;69.90;;;;;;2360402;53;21022;-72
2021/01/17 02:59:57;;;;;;;11.57;5.45;;;3.60;69.90;;;;;;2621838;52;21192;-71
2021/01/17 03:02:30;;;;;;;10.48;5.30;;;3.60;69.90;;;;;;2620124;52;20917;-71
2021/01/17 03:04:59;;;;;;;11.50;5.78;;;3.60;70.00;;;;;;2609135;52;20957;-71
2021/01/17 03:07:29;;;;;;;12.52;5.87;;;3.60;69.90;;;;;;2598925;52;20910;-72
2021/01/17 03:09:55;;;;;;;12.20;6.20;;;3.60;70.00;;;;;;2618356;52;20953;-71
2021/01/17 03:12:21;;;;;;;12.00;5.70;;;3.60;69.90;;;;;;2368571;54;20938;-72
2021/01/17 03:14:48;;;;;;;10.52;5.30;;;3.60;70.60;;;;;;2621450;52;20922;-71
2021/01/17 03:17:15;;;;;;;9.95;5.18;;;3.60;70.00;;;;;;2620778;52;21705;-72
2021/01/17 03:19:43;;;;;;;11.12;5.65;;;3.60;70.00;;;;;;2611323;52;20949;-70
2021/01/17 03:22:10;;;;;;;12.15;5.35;;;3.70;70.10;;;;;;2621173;52;21008;-71
2021/01/17 03:24:37;;;;;;;9.23;4.78;;;3.70;70.10;;;;;;2594519;52;21600;-71
2021/01/17 03:27:04;;;;;;;11.20;5.65;;;3.70;70.10;;;;;;2621344;52;21467;-72
2021/01/17 03:29:33;;;;;;;9.57;5.22;;;3.70;70.10;;;;;;2565686;53;20969;-71
2021/01/17 03:31:59;;;;;;;11.35;5.35;;;3.70;70.10;;;;;;2590318;52;21000;-70
2021/01/17 03:34:26;;;;;;;12.30;5.93;;;3.70;70.10;;;;;;2586754;52;20945;-70
2021/01/17 03:36:52;;;;;;;11.50;5.80;;;3.70;70.10;;;;;;2353184;53;20981;-70
2021/01/17 03:39:18;;;;;;;11.32;5.70;;;3.70;70.00;;;;;;2604146;52;20933;-71
2021/01/17 03:41:45;;;;;;;10.88;5.47;;;3.70;70.00;;;;;;2604400;52;21181;-70
2021/01/17 03:44:11;;;;;;;9.95;5.07;;;3.70;70.00;;;;;;2358943;53;20958;-72
2021/01/17 03:46:39;;;;;;;10.65;5.18;;;3.70;70.10;;;;;;2588356;52;20913;-70
2021/01/17 03:49:05;;;;;;;9.80;5.05;;;3.70;70.00;;;;;;2594014;52;21782;-71
2021/01/17 03:51:32;;;;;;;9.88;5.28;;;3.70;70.00;;;;;;2356350;53;21795;-70
2021/01/17 03:53:59;;;;;;;9.80;4.87;;;3.70;70.00;;;;;;2587403;52;20928;-72
2021/01/17 03:56:25;;;;;;;10.82;5.15;;;3.70;70.00;;;;;;2610144;52;21060;-71
2021/01/17 03:58:52;;;;;;;11.93;5.55;;;3.70;70.00;;;;;;2593404;52;20913;-72
2021/01/17 04:01:19;;;;;;;10.15;5.05;;;3.70;70.10;;;;;;2352233;53;21069;-71
2021/01/17 04:03:45;;;;;;;8.23;4.28;;;3.70;70.10;;;;;;2620208;52;20973;-71
2021/01/17 04:06:12;;;;;;;9.60;4.65;;;3.80;70.10;;;;;;2620273;52;21040;-72
2021/01/17 04:08:38;;;;;;;9.57;4.80;;;3.80;70.20;;;;;;2621630;52;21022;-70
2021/01/17 04:11:09;;;;;;;9.68;4.97;;;3.80;70.10;;;;;;2620322;52;21084;-71
2021/01/17 04:13:35;;;;;;;9.93;4.82;;;3.80;70.10;;;;;;2588702;52;21936;-71
2021/01/17 04:16:01;;;;;;;11.05;5.35;;;3.80;70.10;;;;;;2621337;52;20946;-72
2021/01/17 04:18:28;;;;;;;10.40;5.30;;;3.80;70.10;;;;;;2358651;53;20972;-72
2021/01/17 04:20:54;;;;;;;10.23;4.85;;;3.80;70.10;;;;;;2357354;53;21580;-70
2021/01/17 04:23:27;;;;;;;9.57;4.93;;;3.80;70.10;;;;;;2592017;52;20950;-70
2021/01/17 04:25:53;;;;;;;;;;;3.80;70.10;;;;;;2356518;53;20897;-70
2021/01/17 04:28:23;;;;;;;10.00;4.80;;;3.80;69.70;;;;;;2614928;52;20407;-71
2021/01/17 04:30:49;;;;;;;10.13;4.82;;;3.80;70.00;;;;;;2606968;52;21071;-72
2021/01/17 04:33:18;;;;;;;9.88;5.25;;;3.80;70.10;;;;;;2597752;52;20941;-72
2021/01/17 04:35:46;;;;;;;10.15;5.47;;;3.80;70.10;;;;;;2338027;54;21337;-70
2021/01/17 04:38:12;;;;;;;23.38;9.40;;;3.70;70.10;;;;;;2605834;52;20917;-71
2021/01/17 04:40:38;;;;;;;22.40;9.38;;;3.80;70.10;;;;;;2601145;52;20934;-69
2021/01/17 04:43:35;;;;;;;26.37;12.60;;;3.80;70.20;;;;;;2619907;52;20949;-72
2021/01/17 04:46:03;;;;;;;48.28;19.58;;;3.90;70.30;;;;;;2620351;52;20909;-71
2021/01/17 04:48:30;;;;;;;37.92;17.48;;;3.90;70.30;;;;;;2582102;52;21382;-72
2021/01/17 04:50:59;;;;;;;20.23;11.05;;;3.90;70.30;;;;;;2611091;52;20940;-71
2021/01/17 04:53:25;;;;;;;16.40;10.05;;;3.90;70.30;;;;;;2597311;52;21012;-71
2021/01/17 04:55:52;;;;;;;19.15;10.32;;;3.90;70.30;;;;;;2356430;53;20940;-72
2021/01/17 04:58:19;;;;;;;18.05;9.75;;;3.90;70.30;;;;;;2594879;52;20949;-71
2021/01/17 05:00:56;;;;;;;13.68;7.45;;;3.90;70.30;;;;;;2619639;52;21355;-72
2021/01/17 05:03:43;;;;;;;11.57;6.20;;;3.90;70.30;;;;;;2351623;53;21009;-72
2021/01/17 05:06:43;;;;;;;9.95;5.30;;;3.90;70.30;;;;;;2366485;54;20928;-72
2021/01/17 05:09:10;;;;;;;10.95;4.37;;;3.90;70.10;;;;;;2357566;53;20932;-71
2021/01/17 05:11:40;;;;;;;8.43;4.12;;;4.00;70.30;;;;;;2590861;52;20949;-72
2021/01/17 05:14:09;;;;;;;;;;;4.00;70.40;;;;;;2351910;53;21013;-71
2021/01/17 05:16:45;;;;;;;7.87;3.72;;;4.00;69.90;;;;;;2345800;53;20130;-71
2021/01/17 05:19:21;;;;;;;8.38;4.50;;;4.00;70.20;;;;;;2586961;52;21831;-72
2021/01/17 05:21:49;;;;;;;8.18;3.62;;;4.00;70.30;;;;;;2586866;52;21037;-72
2021/01/17 05:24:16;;;;;;;6.90;3.72;;;4.00;70.30;;;;;;2578814;52;21473;-71
2021/01/17 05:26:53;;;;;;;6.05;3.25;;;4.00;70.30;;;;;;2595386;52;20993;-72
2021/01/17 05:29:20;;;;;;;7.75;3.28;;;4.00;70.30;;;;;;2599524;52;21526;-72
2021/01/17 05:31:50;;;;;;;7.20;3.60;;;4.00;70.40;;;;;;2352245;53;21060;-72
2021/01/17 05:34:19;;;;;;;8.93;4.25;;;4.00;70.40;;;;;;2592029;52;20949;-72
2021/01/17 05:36:46;;;;;;;8.07;3.62;;;4.10;70.40;;;;;;2588003;52;20949;-72
2021/01/17 05:39:12;;;;;;;7.45;3.67;;;4.10;70.50;;;;;;2589806;51;20984;-72
2021/01/17 05:41:39;;;;;;;36.90;10.00;;;4.10;70.40;;;;;;2615512;52;20934;-71
2021/01/17 05:44:05;;;;;;;22.08;7.10;;;4.10;70.40;;;;;;2620678;52;20922;-72
2021/01/17 05:46:31;;;;;;;14.80;5.85;;;4.10;70.40;;;;;;2595877;52;20924;-72
2021/01/17 05:49:13;;;;;;;11.12;4.57;;;4.10;70.50;;;;;;2611337;52;20949;-72
2021/01/17 05:51:39;;;;;;;9.77;4.00;;;4.10;70.40;;;;;;2594202;52;20920;-72
2021/01/17 05:54:08;;;;;;;8.00;3.80;;;4.10;70.40;;;;;;2602940;52;21016;-71
2021/01/17 05:56:35;;;;;;;8.73;4.07;;;4.20;70.50;;;;;;2596562;52;21009;-72
2021/01/17 05:59:06;;;;;;;9.63;4.87;;;4.20;70.50;;;;;;2604102;52;21013;-71
2021/01/17 06:01:32;;;;;;;11.18;5.18;;;4.20;70.50;;;;;;2589715;52;21450;-72
2021/01/17 06:03:59;;;;;;;11.40;6.10;;;4.20;70.50;;;;;;2361142;53;20958;-72
2021/01/17 06:06:27;;;;;;;11.32;6.12;;;4.20;70.50;;;;;;2347447;53;20970;-72
2021/01/17 06:08:59;;;;;;;10.30;5.60;;;4.20;70.50;;;;;;2586569;52;20949;-72
2021/01/17 06:11:26;;;;;;;8.18;4.28;;;4.20;70.50;;;;;;2602579;52;20973;-73
2021/01/17 06:13:56;;;;;;;7.80;3.60;;;4.20;70.40;;;;;;2594619;52;20925;-73
2021/01/17 06:16:34;;;;;;;7.15;3.55;;;4.20;70.50;;;;;;2583963;52;20961;-73
2021/01/17 06:19:01;;;;;;;7.30;3.55;;;4.20;70.50;;;;;;2612868;52;20937;-73
2021/01/17 06:21:29;;;;;;;7.37;3.65;;;4.20;70.50;;;;;;2597384;52;20953;-72
2021/01/17 06:24:17;;;;;;;6.50;3.30;;;4.20;70.50;;;;;;2577694;52;20953;-72
2021/01/17 06:26:44;;;;;;;6.07;2.87;;;4.30;70.50;;;;;;2555852;52;21461;-72
2021/01/17 06:29:15;;;;;;;6.20;2.70;;;4.30;70.50;;;;;;2592628;52;21458;-72
2021/01/17 06:31:42;;;;;;;6.03;3.00;;;4.30;70.60;;;;;;2351600;53;20953;-72
2021/01/17 06:34:12;;;;;;;7.65;3.35;;;4.30;70.50;;;;;;2344744;53;22059;-72
2021/01/17 06:36:44;;;;;;;9.35;3.90;;;4.30;71.30;;;;;;2585211;52;20978;-73
2021/01/17 06:39:22;;;;;;;9.02;4.30;;;4.30;70.60;;;;;;2348393;53;20966;-73
2021/01/17 06:41:49;;;;;;;8.47;3.77;;;4.30;70.50;;;;;;2550139;52;2345740;-72
2021/01/17 06:44:15;;;;;;;6.00;2.90;;;4.30;70.60;;;;;;2361122;53;21005;-72
2021/01/17 06:46:43;;;;;;;5.68;2.47;;;4.30;70.50;;;;;;2571666;52;21020;-72
2021/01/17 06:49:43;;;;;;;6.43;2.75;;;4.30;70.60;;;;;;2593220;52;21806;-72
2021/01/17 06:52:10;;;;;;;5.50;2.55;;;4.40;70.50;;;;;;2351121;53;20909;-71
2021/01/17 06:55:01;;;;;;;5.07;2.40;;;4.40;70.60;;;;;;2621724;52;20878;-73
2021/01/17 06:57:33;;;;;;;5.37;2.47;;;4.40;70.60;;;;;;2621480;52;20922;-71
2021/01/17 06:59:59;;;;;;;4.32;2.10;;;4.40;70.60;;;;;;2344650;53;20925;-73
2021/01/17 07:02:38;;;;;;;4.75;2.60;;;4.40;70.70;;;;;;2353687;53;21441;-71
2021/01/17 07:06:20;;;;;;;5.28;2.70;;;4.40;70.70;;;;;;2568858;52;20934;-72
2021/01/17 07:08:50;;;;;;;6.12;2.87;;;4.40;70.40;;;;;;2585216;52;20906;-72
2021/01/17 07:11:22;;;;;;;5.65;2.47;;;4.50;70.60;;;;;;2615355;52;20946;-73
2021/01/17 07:13:49;;;;;;;5.10;2.70;;;4.40;70.50;;;;;;2346248;53;21068;-72
2021/01/17 07:16:28;;;;;;;5.28;2.40;;;4.40;70.50;;;;;;2619316;52;20997;-71
2021/01/17 07:18:54;;;;;;;5.90;2.83;;;4.40;70.50;;;;;;2618846;52;20981;-71
2021/01/17 07:21:22;;;;;;;4.45;2.25;;;4.40;70.50;;;;;;2616273;52;20969;-72
2021/01/17 07:23:48;;;;;;;3.17;1.40;;;4.40;70.50;;;;;;2589714;52;20926;-72
2021/01/17 07:26:14;;;;;;;5.55;2.12;;;4.40;70.60;;;;;;2585273;52;20976;-70
2021/01/17 07:28:44;;;;;;;6.53;2.25;;;4.40;70.60;;;;;;2595594;52;21656;-71
2021/01/17 07:31:17;;;;;;;5.22;2.47;;;4.40;70.60;;;;;;2586193;52;20897;-73
2021/01/17 07:33:46;;;;;;;4.12;2.00;;;4.50;70.70;;;;;;2592219;52;21029;-72
2021/01/17 07:36:18;;;;;;;4.97;2.50;;;4.50;70.80;;;;;;2613661;52;20941;-72
2021/01/17 07:38:46;;;;;;;5.65;3.03;;;4.50;70.80;;;;;;2599052;52;20921;-72
2021/01/17 07:41:13;;;;;;;5.37;3.00;;;4.50;70.80;;;;;;2587856;52;20998;-71
2021/01/17 07:43:43;;;;;;;5.62;2.65;;;4.50;70.80;;;;;;2365379;53;20890;-72
2021/01/17 07:46:12;;;;;;;5.73;3.03;;;4.50;70.80;;;;;;2372503;54;20914;-71
2021/01/17 07:48:39;;;;;;;6.55;3.47;;;4.50;70.80;;;;;;2351052;54;21053;-71
2021/01/17 07:51:08;;;;;;;5.60;2.97;;;4.50;70.90;;;;;;2585926;52;20967;-73
2021/01/17 07:54:03;;;;;;;6.87;2.97;;;4.50;71.00;;;;;;2566937;52;20932;-72
2021/01/17 07:56:33;;;;;;;7.22;3.37;;;4.50;70.90;;;;;;2579844;53;21706;-71
2021/01/17 07:59:04;;;;;;;5.35;2.87;;;4.60;71.00;;;;;;2569378;53;21004;-72
2021/01/17 08:01:56;;;;;;;6.45;3.33;;;4.60;71.00;;;;;;2334452;54;20969;-72
2021/01/17 08:04:23;;;;;;;7.18;3.53;;;4.60;70.90;;;;;;2335073;54;21017;-72
2021/01/17 08:06:49;;;;;;;5.47;2.90;;;4.60;71.00;;;;;;2335099;53;21444;-71
2021/01/17 08:09:19;;;;;;;5.95;2.90;;;4.60;71.00;;;;;;2577089;53;21312;-71
2021/01/17 08:11:55;;;;;;;10.48;4.55;;;4.60;71.00;;;;;;2572254;53;21393;-72
2021/01/17 08:14:55;;;;;;;6.65;3.22;;;4.60;71.00;;;;;;2553047;53;20941;-70
2021/01/17 08:17:22;;;;;;;5.55;2.80;;;4.70;71.10;;;;;;2580727;52;21041;-71
2021/01/17 08:20:07;;;;;;;7.05;3.30;;;4.70;71.00;;;;;;2583550;52;20970;-71
2021/01/17 08:22:44;;;;;;;6.10;3.00;;;4.70;70.90;;;;;;2562633;52;21014;-73
2021/01/17 08:25:12;;;;;;;6.78;3.70;;;4.60;70.90;;;;;;2335710;53;20956;-72
2021/01/17 08:27:39;;;;;;;8.63;4.47;;;4.70;71.00;;;;;;2585579;52;21379;-72
2021/01/17 08:30:27;;;;;;;5.87;3.47;;;4.70;71.10;;;;;;2574566;52;21432;-72
2021/01/17 08:32:58;;;;;;;7.90;4.07;;;4.70;71.00;;;;;;2548194;53;21046;-73
2021/01/17 08:35:33;;;;;;;6.78;3.50;;;4.80;71.10;;;;;;2577074;52;21054;-71
2021/01/17 08:38:22;;;;;;;16.90;7.15;;;4.80;71.10;;;;;;2302903;54;20964;-71
2021/01/17 08:40:52;;;;;;;25.45;10.65;;;4.80;71.00;;;;;;2548439;53;20935;-72
2021/01/17 08:43:18;;;;;;;20.33;9.80;;;4.80;71.10;;;;;;2564900;53;21060;-71
2021/01/17 08:45:46;;;;;;;14.52;6.45;;;4.80;71.10;;;;;;2334007;54;21439;-73
2021/01/17 08:48:31;;;;;;;12.60;5.65;;;4.90;71.20;;;;;;2582418;52;20914;-72
2021/01/17 08:51:19;;;;;;;13.13;6.32;;;4.90;71.20;;;;;;2364811;54;20928;-71
2021/01/17 08:53:45;;;;;;;11.52;6.30;;;4.90;71.40;;;;;;2577660;52;20977;-74
2021/01/17 08:56:21;;;;;;;9.18;5.05;;;5.00;71.40;;;;;;2343210;54;21036;-72
2021/01/17 08:58:51;;;;;;;9.98;5.97;;;5.00;71.50;;;;;;2593378;52;21343;-73
2021/01/17 09:01:18;;;;;;;12.13;6.65;;;5.00;71.50;;;;;;2606812;52;20938;-73
2021/01/17 09:04:07;;;;;;;11.10;6.40;;;5.10;71.60;;;;;;2610292;52;21009;-74
2021/01/17 09:06:33;;;;;;;11.48;6.37;;;5.20;71.60;;;;;;2613017;52;21688;-73
2021/01/17 09:09:05;;;;;;;11.50;6.70;;;5.20;71.70;;;;;;2581694;52;20930;-73
2021/01/17 09:11:33;;;;;;;8.48;4.85;;;5.20;71.70;;;;;;2587693;52;21005;-73
2021/01/17 09:14:14;;;;;;;7.90;4.55;;;5.30;71.60;;;;;;2607080;52;20958;-72
2021/01/17 09:16:56;;;;;;;7.65;4.25;;;5.40;71.40;;;;;;2600400;52;20984;-73
2021/01/17 09:19:31;;;;;;;13.07;6.60;;;5.40;71.20;;;;;;2352476;54;21383;-72
2021/01/17 09:21:59;;;;;;;9.25;5.45;;;5.40;71.00;;;;;;2552958;53;20961;-74
2021/01/17 09:24:30;;;;;;;7.15;4.35;;;5.40;70.70;;;;;;2549463;53;21061;-75
2021/01/17 09:26:59;;;;;;;6.70;3.62;;;5.50;70.50;;;;;;2588433;52;20961;-75
2021/01/17 09:29:35;;;;;;;8.13;4.85;;;5.40;70.10;;;;;;2603373;52;21042;-75
2021/01/17 09:32:13;;;;;;;6.72;3.80;;;5.40;70.00;;;;;;2612296;52;20922;-75
2021/01/17 09:34:46;;;;;;;11.07;4.82;;;5.40;70.10;;;;;;2614249;52;20930;-76
2021/01/17 09:37:13;;;;;;;10.77;5.50;;;5.50;70.30;;;;;;2614219;52;21085;-78
2021/01/17 09:39:44;;;;;;;8.82;4.60;;;5.50;70.40;;;;;;2603656;52;20984;-75
2021/01/17 09:42:11;;;;;;;6.97;4.07;;;5.50;70.50;;;;;;2593893;52;21021;-75
2021/01/17 09:44:38;;;;;;;12.18;8.20;;;5.50;70.60;;;;;;2590905;52;20965;-79
2021/01/17 09:47:20;;;;;;;11.15;7.32;;;5.50;70.70;;;;;;2575645;53;20965;-75
2021/01/17 09:49:48;;;;;;;10.20;7.07;;;5.50;70.60;;;;;;2582529;52;20936;-78
2021/01/17 09:52:24;;;;;;;11.00;7.32;;;5.60;70.70;;;;;;2595666;52;20945;-80
2021/01/17 09:54:52;;;;;;;7.55;5.20;;;5.60;70.60;;;;;;2583013;52;21557;-76
2021/01/17 09:57:20;;;;;;;8.68;5.07;;;5.60;70.50;;;;;;2580461;52;21007;-79
2021/01/17 09:59:48;;;;;;;11.75;5.80;;;5.60;70.50;;;;;;2602763;52;20941;-76
2021/01/17 10:02:18;;;;;;;12.88;6.45;;;5.60;70.30;;;;;;2614526;52;21480;-78
2021/01/17 10:04:45;;;;;;;10.15;5.85;;;5.70;70.20;;;;;;2601817;52;21013;-77
2021/01/17 10:07:15;;;;;;;8.63;4.35;;;5.70;70.10;;;;;;2593107;52;21522;-77
2021/01/17 10:09:42;;;;;;;6.37;3.50;;;5.60;70.00;;;;;;2616334;52;21446;-78
2021/01/17 10:12:11;;;;;;;5.80;3.22;;;5.70;70.30;;;;;;2604226;52;21041;-76
2021/01/17 10:14:40;;;;;;;5.80;3.00;;;5.70;70.30;;;;;;2576485;53;20938;-77
2021/01/17 10:17:09;;;;;;;4.40;2.78;;;5.70;70.30;;;;;;2609626;52;21005;-78
2021/01/17 10:19:37;;;;;;;4.15;2.08;;;5.70;70.30;;;;;;2617166;52;21529;-77
2021/01/17 10:22:04;;;;;;;3.97;2.30;;;5.70;70.30;;;;;;2583808;52;21029;-76
2021/01/17 10:24:33;;;;;;;4.85;2.20;;;5.80;70.40;;;;;;2614818;52;21666;-79
2021/01/17 10:27:02;;;;;;;4.45;2.45;;;5.80;70.40;;;;;;2363995;54;21066;-76
2021/01/17 10:29:36;;;;;;;4.22;2.08;;;5.80;70.50;;;;;;2364612;54;20993;-78
2021/01/17 10:32:10;;;;;;;3.87;2.10;;;5.80;70.40;;;;;;2614944;52;20918;-79
2021/01/17 10:34:45;;;;;;;3.50;1.80;;;5.80;70.30;;;;;;2608665;52;21054;-77
2021/01/17 10:37:18;;;;;;;4.55;2.10;;;5.90;70.40;;;;;;2594180;52;21800;-79
2021/01/17 10:39:53;;;;;;;2.87;1.50;;;5.90;70.40;;;;;;2353231;54;20949;-77
2021/01/17 10:42:34;;;;;;;4.45;2.40;;;5.90;70.30;;;;;;2602930;52;21026;-75
2021/01/17 10:45:04;;;;;;;4.05;1.80;;;5.90;70.10;;;;;;2610110;52;20985;-79
2021/01/17 10:48:37;;;;;;;3.35;1.50;;;5.90;70.30;;;;;;2606984;52;21046;-74
2021/01/17 10:51:07;;;;;;;5.95;2.00;;;6.00;70.50;;;;;;2584705;52;20945;-76
2021/01/17 10:53:46;;;;;;;8.52;4.12;;;6.10;70.80;;;;;;2612943;52;21116;-78
2021/01/17 10:56:21;;;;;;;20.35;7.00;;;6.10;70.80;;;;;;2581259;52;21417;-74
2021/01/17 10:58:48;;;;;;;31.25;11.10;;;6.10;71.00;;;;;;2586824;53;21048;-75
2021/01/17 11:01:14;;;;;;;18.05;8.23;;;6.10;71.00;;;;;;2598242;52;20921;-77
2021/01/17 11:03:43;;;;;;;11.50;5.37;;;6.20;71.00;;;;;;2573088;53;20997;-74
2021/01/17 11:06:22;;;;;;;7.32;3.30;;;6.20;71.20;;;;;;2578966;52;21016;-77
2021/01/17 11:08:58;;;;;;;4.93;2.30;;;6.30;71.30;;;;;;2577954;53;21410;-76
2021/01/17 11:11:29;;;;;;;3.92;1.80;;;6.30;71.30;;;;;;2575873;52;20949;-77
2021/01/17 11:14:02;;;;;;;2.72;1.30;;;6.40;71.30;;;;;;2570060;52;20949;-76
2021/01/17 11:16:36;;;;;;;3.20;1.48;;;6.50;71.10;;;;;;2581345;52;20957;-78
2021/01/17 11:19:03;;;;;;;2.28;1.10;;;6.50;70.90;;;;;;2585558;52;20957;-77
2021/01/17 11:21:30;;;;;;;2.67;1.20;;;6.50;70.80;;;;;;2581834;52;20996;-75
2021/01/17 11:23:57;;;;;;;3.53;1.02;;;6.50;70.80;;;;;;2606976;52;20922;-77
2021/01/17 11:26:25;;;;;;;3.03;1.40;;;6.60;70.90;;;;;;2615960;52;21136;-77
2021/01/17 11:28:52;;;;;;;2.62;1.27;;;6.60;71.00;;;;;;2581457;52;21004;-77
2021/01/17 11:31:21;;;;;;;2.30;1.17;;;6.60;71.00;;;;;;2585595;52;20964;-77
2021/01/17 11:33:47;;;;;;;3.35;1.77;;;6.60;70.80;;;;;;2579807;52;20990;-76
2021/01/17 11:36:17;;;;;;;2.80;1.40;;;6.60;70.80;;;;;;2584960;52;21013;-78
2021/01/17 11:38:54;;;;;;;3.28;1.75;;;6.70;71.00;;;;;;2610596;52;20902;-75
2021/01/17 11:41:25;;;;;;;23.33;9.35;;;6.70;71.00;;;;;;2587889;52;21373;-76
2021/01/17 11:43:52;;;;;;;12.37;6.05;;;6.70;71.30;;;;;;2581527;52;20980;-78
2021/01/17 11:46:19;;;;;;;6.80;3.50;;;6.70;71.40;;;;;;2579734;53;20997;-77
2021/01/17 11:48:46;;;;;;;6.43;2.90;;;6.70;71.40;;;;;;2565732;53;20931;-77
2021/01/17 11:51:22;;;;;;;5.00;2.45;;;6.80;71.50;;;;;;2602328;52;20985;-78
2021/01/17 11:53:51;;;;;;;4.40;2.33;;;6.80;71.50;;;;;;2575178;52;20909;-77
2021/01/17 11:56:18;;;;;;;3.85;1.80;;;6.80;71.50;;;;;;2554696;53;21894;-77
2021/01/17 11:58:44;;;;;;;3.87;2.22;;;6.80;71.70;;;;;;2600276;52;20981;-78
2021/01/17 12:01:13;;;;;;;4.65;2.37;;;6.90;71.70;;;;;;2577881;53;20963;-77
2021/01/17 12:03:43;;;;;;;4.35;2.00;;;6.90;71.80;;;;;;2608650;52;20990;-76
2021/01/17 12:06:20;;;;;;;4.30;2.10;;;7.00;72.00;;;;;;2609554;52;21018;-76
2021/01/17 12:09:46;;;;;;;3.90;1.90;;;7.00;72.20;;;;;;2589700;52;20950;-78
2021/01/17 12:12:24;;;;;;;4.35;2.33;;;7.00;71.60;;;;;;2609510;52;20985;-75
2021/01/17 12:14:50;;;;;;;3.47;1.77;;;7.20;72.30;;;;;;2587609;52;20966;-75
2021/01/17 12:17:18;;;;;;;6.12;2.80;;;7.10;72.10;;;;;;2614746;52;20994;-77
2021/01/17 12:19:44;;;;;;;6.72;3.37;;;7.10;72.00;;;;;;2615547;52;21772;-76
2021/01/17 12:22:11;;;;;;;5.15;2.62;;;7.10;71.90;;;;;;2613368;52;21108;-76
2021/01/17 12:24:38;;;;;;;8.43;3.75;;;7.10;71.60;;;;;;2581976;52;20947;-77
2021/01/17 12:27:05;;;;;;;18.55;7.05;;;7.10;71.60;;;;;;2615455;52;20918;-77
2021/01/17 12:29:32;;;;;;;13.35;6.22;;;7.10;71.60;;;;;;2577109;53;21776;-77
2021/01/17 12:31:58;;;;;;;10.75;5.15;;;7.10;71.60;;;;;;2569302;53;20949;-76
2021/01/17 12:34:24;;;;;;;33.72;10.85;;;7.10;71.70;;;;;;2338350;53;21510;-77
2021/01/17 12:36:51;;;;;;;30.05;10.60;;;7.10;71.90;;;;;;2593303;52;21016;-75
2021/01/17 12:39:18;;;;;;;19.27;7.15;;;7.20;71.90;;;;;;2568443;53;20977;-76
2021/01/17 12:41:45;;;;;;;11.35;3.67;;;7.10;71.70;;;;;;2540923;53;20965;-77
2021/01/17 12:44:12;;;;;;;6.35;2.70;;;7.20;71.80;;;;;;2557338;52;20994;-76
2021/01/17 12:46:39;;;;;;;5.25;2.40;;;7.20;72.10;;;;;;2338498;53;20964;-76
2021/01/17 12:49:05;;;;;;;8.10;3.20;;;7.20;72.00;;;;;;2548706;53;20995;-77
2021/01/17 12:51:32;;;;;;;13.32;4.85;;;7.20;71.90;;;;;;2575839;53;21846;-76
2021/01/17 12:53:58;;;;;;;7.05;3.45;;;7.20;71.70;;;;;;2546578;53;20925;-77
2021/01/17 12:56:25;;;;;;;7.32;3.00;;;7.20;71.20;;;;;;2601540;52;20950;-77
2021/01/17 12:58:51;;;;;;;4.60;2.10;;;7.20;71.10;;;;;;2582307;52;20985;-77
2021/01/17 13:01:18;;;;;;;4.47;2.08;;;7.20;71.70;;;;;;2570657;52;21017;-77
2021/01/17 13:03:47;;;;;;;5.05;2.15;;;7.20;71.00;;;;;;2549372;52;21015;-77
2021/01/17 13:06:13;;;;;;;7.72;2.92;;;7.20;71.10;;;;;;2569515;52;20937;-75
2021/01/17 13:08:42;;;;;;;4.65;2.20;;;7.20;71.20;;;;;;2574311;52;21006;-77
2021/01/17 13:11:10;;;;;;;5.25;2.28;;;7.30;71.20;;;;;;2602963;52;20934;-75
2021/01/17 13:13:36;;;;;;;4.03;1.98;;;7.10;70.90;;;;;;2597914;52;21013;-76
2021/01/17 13:16:13;;;;;;;4.30;2.45;;;7.10;70.70;;;;;;2600770;52;21351;-76
2021/01/17 13:18:39;;;;;;;6.82;3.70;;;7.10;70.60;;;;;;2587465;52;21021;-75
2021/01/17 13:21:05;;;;;;;6.53;3.50;;;7.10;70.50;;;;;;2603329;52;20957;-75